createdAt,value
2018-09-05T00:00:22.473Z,99.90
2018-09-05T00:02:50.702Z,99.90
2018-09-05T00:05:18.949Z,99.90
2018-09-05T00:07:47.234Z,99.90
2018-09-05T00:10:15.481Z,99.90
2018-09-05T00:12:43.704Z,99.90
2018-09-05T00:15:11.962Z,99.90
2018-09-05T00:17:40.207Z,99.90
2018-09-05T00:20:08.418Z,99.90
2018-09-05T00:22:36.670Z,99.90
2018-09-05T00:25:04.933Z,99.90
2018-09-05T00:27:33.161Z,99.90
2018-09-05T00:30:01.522Z,99.90
2018-09-05T00:32:29.763Z,99.90
2018-09-05T00:34:57.982Z,99.90
2018-09-05T00:37:26.239Z,99.90
2018-09-05T00:39:54.487Z,99.90
2018-09-05T00:42:22.726Z,99.90
2018-09-05T00:44:50.965Z,99.90
2018-09-05T00:47:19.219Z,99.90
2018-09-05T00:49:47.440Z,99.90
2018-09-05T00:52:15.686Z,99.90
2018-09-05T00:54:43.905Z,99.90
2018-09-05T00:57:12.125Z,99.90
2018-09-05T00:59:40.354Z,99.90
2018-09-05T01:02:08.606Z,99.90
2018-09-05T01:04:36.846Z,99.90
2018-09-05T01:07:16.393Z,99.90
2018-09-05T01:09:44.598Z,99.90
2018-09-05T01:12:12.838Z,99.90
2018-09-05T01:14:41.054Z,99.90
2018-09-05T01:17:09.337Z,99.90
2018-09-05T01:19:37.555Z,99.90
2018-09-05T01:22:05.856Z,99.90
2018-09-05T01:24:34.086Z,99.90
2018-09-05T01:27:02.315Z,99.90
2018-09-05T01:29:30.841Z,99.90
2018-09-05T01:31:59.088Z,99.90
2018-09-05T01:34:27.362Z,99.90
2018-09-05T01:36:55.606Z,99.90
2018-09-05T01:39:23.824Z,99.90
2018-09-05T01:41:52.075Z,99.90
2018-09-05T01:44:20.317Z,99.90
2018-09-05T01:46:48.577Z,99.90
2018-09-05T01:49:16.818Z,99.90
2018-09-05T01:51:45.074Z,99.90
2018-09-05T01:54:13.305Z,99.90
2018-09-05T01:56:42.007Z,99.90
2018-09-05T01:59:10.256Z,99.90
2018-09-05T02:01:38.505Z,99.90
2018-09-05T02:04:06.801Z,99.90
2018-09-05T02:06:35.065Z,99.90
2018-09-05T02:09:03.397Z,99.90
2018-09-05T02:11:31.618Z,99.90
2018-09-05T02:13:59.857Z,99.90
2018-09-05T02:16:28.258Z,99.90
2018-09-05T02:18:56.653Z,99.90
2018-09-05T02:21:24.892Z,99.90
2018-09-05T02:23:53.110Z,99.90
2018-09-05T02:26:21.343Z,99.90
2018-09-05T02:28:49.574Z,99.90
2018-09-05T02:31:17.781Z,99.90
2018-09-05T02:33:46.008Z,99.90
2018-09-05T02:36:14.273Z,99.90
2018-09-05T02:38:42.509Z,99.90
2018-09-05T02:41:10.830Z,99.90
2018-09-05T02:43:44.437Z,99.90
2018-09-05T02:46:12.670Z,99.90
2018-09-05T02:48:40.889Z,99.90
2018-09-05T02:51:09.153Z,99.90
2018-09-05T02:53:37.409Z,99.90
2018-09-05T02:56:05.678Z,99.90
2018-09-05T02:58:34.718Z,99.90
2018-09-05T03:01:02.982Z,99.90
2018-09-05T03:03:31.467Z,99.90
2018-09-05T03:05:59.722Z,99.90
2018-09-05T03:08:27.998Z,99.90
2018-09-05T03:10:56.270Z,99.90
2018-09-05T03:13:24.517Z,99.90
2018-09-05T03:15:52.753Z,99.90
2018-09-05T03:18:21.006Z,99.90
2018-09-05T03:20:49.251Z,99.90
2018-09-05T03:23:17.483Z,99.90
2018-09-05T03:25:45.954Z,99.90
2018-09-05T03:28:14.187Z,99.90
2018-09-05T03:30:42.430Z,99.90
2018-09-05T03:33:10.734Z,99.90
2018-09-05T03:35:38.965Z,99.90
2018-09-05T03:38:07.193Z,99.90
2018-09-05T03:40:35.457Z,99.90
2018-09-05T03:43:03.689Z,99.90
2018-09-05T03:45:32.041Z,99.90
2018-09-05T03:48:01.365Z,99.90
2018-09-05T03:50:29.604Z,99.90
2018-09-05T03:52:57.845Z,99.90
2018-09-05T03:55:26.055Z,99.90
2018-09-05T03:57:54.311Z,99.90
2018-09-05T04:00:22.590Z,99.90
2018-09-05T04:02:50.868Z,99.90
2018-09-05T04:05:19.157Z,99.90
2018-09-05T04:07:47.381Z,99.90
2018-09-05T04:10:15.608Z,99.90
2018-09-05T04:12:43.830Z,99.90
2018-09-05T04:15:12.127Z,99.90
2018-09-05T04:17:40.373Z,99.90
2018-09-05T04:20:09.277Z,99.90
2018-09-05T04:22:37.509Z,99.90
2018-09-05T04:25:05.776Z,99.90
2018-09-05T04:27:34.070Z,99.90
2018-09-05T04:30:02.624Z,99.90
2018-09-05T04:32:30.874Z,99.90
2018-09-05T04:34:59.109Z,99.90
2018-09-05T04:37:27.350Z,99.90
2018-09-05T04:39:55.610Z,99.90
2018-09-05T04:42:23.878Z,99.90
2018-09-05T04:44:52.104Z,99.90
2018-09-05T04:47:20.317Z,99.90
2018-09-05T04:49:48.575Z,99.90
2018-09-05T04:52:17.029Z,99.90
2018-09-05T04:54:45.298Z,99.90
2018-09-05T04:57:13.602Z,99.90
2018-09-05T04:59:41.859Z,99.90
2018-09-05T05:02:10.151Z,99.90
2018-09-05T05:04:38.469Z,99.90
2018-09-05T05:07:06.622Z,99.90
2018-09-05T05:09:34.877Z,99.90
2018-09-05T05:12:03.128Z,99.90
2018-09-05T05:14:31.542Z,99.90
2018-09-05T05:16:59.780Z,99.90
2018-09-05T05:19:28.490Z,99.90
2018-09-05T05:21:56.758Z,99.90
2018-09-05T05:24:25.003Z,99.90
2018-09-05T05:26:53.246Z,99.90
2018-09-05T05:29:21.481Z,99.90
2018-09-05T05:31:49.714Z,99.90
2018-09-05T05:34:18.607Z,99.90
2018-09-05T05:36:46.954Z,99.90
2018-09-05T05:39:15.201Z,99.90
2018-09-05T05:41:43.422Z,99.90
2018-09-05T05:44:11.669Z,99.90
2018-09-05T05:46:39.963Z,99.90
2018-09-05T05:49:08.175Z,99.90
2018-09-05T05:51:36.497Z,99.90
2018-09-05T05:54:04.766Z,99.90
2018-09-05T05:56:33.081Z,99.90
2018-09-05T05:59:01.493Z,99.90
2018-09-05T06:01:29.758Z,99.90
2018-09-05T06:03:58.155Z,99.90
2018-09-05T06:06:26.487Z,99.90
2018-09-05T06:08:54.654Z,99.90
2018-09-05T06:11:22.920Z,99.90
2018-09-05T06:13:51.185Z,99.90
2018-09-05T06:16:19.494Z,99.90
2018-09-05T06:18:47.821Z,99.90
2018-09-05T06:21:16.207Z,99.90
2018-09-05T06:23:44.453Z,99.90
2018-09-05T06:26:12.638Z,99.90
2018-09-05T06:28:40.900Z,99.90
2018-09-05T06:31:09.295Z,99.90
2018-09-05T06:33:37.303Z,99.90
2018-09-05T06:36:05.517Z,99.90
2018-09-05T06:38:33.725Z,99.90
2018-09-05T06:41:01.930Z,99.90
2018-09-05T06:43:30.886Z,99.90
2018-09-05T06:45:59.074Z,99.90
2018-09-05T06:48:27.261Z,99.90
2018-09-05T06:51:01.042Z,99.90
2018-09-05T06:53:29.420Z,99.90
2018-09-05T06:55:57.602Z,99.90
2018-09-05T06:58:25.798Z,99.90
2018-09-05T07:00:54.002Z,99.90
2018-09-05T07:03:22.516Z,99.90
2018-09-05T07:05:50.765Z,99.90
2018-09-05T07:08:19.010Z,99.90
2018-09-05T07:10:47.311Z,99.90
2018-09-05T07:13:15.637Z,99.90
2018-09-05T07:15:44.013Z,99.90
2018-09-05T07:18:12.367Z,99.90
2018-09-05T07:20:40.670Z,99.90
2018-09-05T07:23:09.379Z,99.90
2018-09-05T07:25:37.652Z,99.90
2018-09-05T07:28:06.307Z,99.90
2018-09-05T07:30:34.737Z,99.90
2018-09-05T07:33:03.042Z,99.90
2018-09-05T07:35:31.469Z,99.90
2018-09-05T07:37:59.870Z,99.90
2018-09-05T07:40:28.225Z,99.90
2018-09-05T07:42:56.634Z,99.90
2018-09-05T07:45:25.598Z,99.90
2018-09-05T07:47:54.411Z,99.90
2018-09-05T07:50:22.753Z,99.90
2018-09-05T07:52:51.130Z,99.90
2018-09-05T07:55:19.714Z,99.90
2018-09-05T07:57:48.157Z,99.90
2018-09-05T08:00:16.601Z,99.90
2018-09-05T08:02:45.036Z,99.90
2018-09-05T08:05:13.489Z,99.90
2018-09-05T08:07:42.325Z,99.90
2018-09-05T08:10:10.758Z,99.90
2018-09-05T08:12:39.221Z,99.90
2018-09-05T08:15:08.137Z,99.90
2018-09-05T08:17:36.826Z,99.90
2018-09-05T08:20:05.354Z,99.90
2018-09-05T08:22:33.948Z,99.90
2018-09-05T08:25:02.369Z,99.90
2018-09-05T08:27:30.769Z,99.90
2018-09-05T08:29:59.163Z,99.90
2018-09-05T08:32:27.754Z,99.90
2018-09-05T08:34:56.563Z,99.90
2018-09-05T08:37:25.035Z,99.90
2018-09-05T08:39:54.041Z,99.90
2018-09-05T08:42:23.610Z,99.90
2018-09-05T08:44:52.150Z,99.90
2018-09-05T08:47:20.620Z,99.90
2018-09-05T08:49:49.109Z,99.90
2018-09-05T08:52:17.528Z,99.90
2018-09-05T08:54:45.986Z,99.90
2018-09-05T08:57:14.424Z,99.90
2018-09-05T08:59:42.990Z,99.90
2018-09-05T09:02:11.508Z,99.90
2018-09-05T09:04:40.258Z,99.90
2018-09-05T09:07:08.575Z,99.90
2018-09-05T09:09:37.022Z,99.90
2018-09-05T09:12:06.139Z,99.90
2018-09-05T09:14:34.582Z,99.90
2018-09-05T09:17:03.213Z,99.90
2018-09-05T09:19:31.609Z,99.90
2018-09-05T09:21:59.962Z,99.90
2018-09-05T09:24:28.405Z,99.90
2018-09-05T09:26:56.791Z,99.90
2018-09-05T09:29:25.223Z,99.90
2018-09-05T09:31:53.746Z,99.90
2018-09-05T09:34:22.242Z,99.90
2018-09-05T09:36:51.066Z,99.90
2018-09-05T09:39:19.542Z,99.90
2018-09-05T09:41:48.195Z,99.90
2018-09-05T09:44:16.636Z,99.90
2018-09-05T09:46:45.125Z,99.90
2018-09-05T09:49:13.476Z,99.90
2018-09-05T09:51:41.891Z,99.90
2018-09-05T09:54:10.329Z,99.90
2018-09-05T09:56:38.839Z,99.90
2018-09-05T09:59:07.331Z,99.90
2018-09-05T10:01:41.318Z,99.90
2018-09-05T10:04:14.998Z,99.90
2018-09-05T10:06:47.737Z,99.90
2018-09-05T10:09:21.548Z,99.90
2018-09-05T10:11:55.399Z,99.80
2018-09-05T10:14:29.021Z,99.90
2018-09-05T10:17:02.741Z,99.90
2018-09-05T10:19:32.444Z,99.90
2018-09-05T10:22:01.138Z,99.40
2018-09-05T10:24:30.009Z,99.50
2018-09-05T10:26:58.580Z,99.30
2018-09-05T10:29:27.134Z,98.30
2018-09-05T10:31:55.710Z,98.40
2018-09-05T10:34:25.284Z,97.80
2018-09-05T10:36:53.751Z,96.50
2018-09-05T10:39:22.750Z,96.00
2018-09-05T10:41:51.413Z,95.20
2018-09-05T10:44:20.642Z,94.10
2018-09-05T10:46:49.026Z,92.10
2018-09-05T10:49:17.446Z,89.50
2018-09-05T10:51:51.170Z,85.50
2018-09-05T10:54:19.771Z,83.80
2018-09-05T10:56:49.305Z,83.30
2018-09-05T10:59:17.874Z,77.70
2018-09-05T11:01:46.352Z,73.50
2018-09-05T11:04:14.818Z,63.50
2018-09-05T11:06:43.300Z,57.50
2018-09-05T11:09:12.474Z,51.30
2018-09-05T11:11:41.124Z,49.60
2018-09-05T11:14:10.538Z,51.70
2018-09-05T11:16:39.360Z,50.30
2018-09-05T11:19:08.307Z,51.50
2018-09-05T11:21:36.773Z,47.00
2018-09-05T11:24:06.438Z,47.40
2018-09-05T11:26:35.401Z,43.10
2018-09-05T11:29:03.962Z,41.10
2018-09-05T11:31:32.952Z,37.70
2018-09-05T11:34:01.370Z,35.00
2018-09-05T11:36:29.736Z,34.70
2018-09-05T11:38:58.217Z,35.20
2018-09-05T11:41:26.661Z,32.90
2018-09-05T11:43:55.313Z,30.40
2018-09-05T11:46:23.676Z,29.90
2018-09-05T11:48:52.334Z,29.50
2018-09-05T11:51:21.218Z,32.60
2018-09-05T11:53:49.641Z,30.10
2018-09-05T11:56:18.061Z,28.60
2018-09-05T11:58:46.681Z,29.20
2018-09-05T12:01:15.387Z,33.90
2018-09-05T12:03:43.765Z,31.70
2018-09-05T12:06:12.197Z,30.90
2018-09-05T12:08:40.635Z,28.80
2018-09-05T12:11:09.322Z,27.40
2018-09-05T12:13:37.733Z,26.50
2018-09-05T12:16:06.285Z,27.20
2018-09-05T12:18:34.755Z,26.60
2018-09-05T12:21:03.153Z,26.00
2018-09-05T12:23:32.808Z,26.10
2018-09-05T12:26:01.281Z,28.80
2018-09-05T12:28:29.742Z,28.10
2018-09-05T12:30:58.274Z,29.10
2018-09-05T12:33:26.897Z,29.10
2018-09-05T12:35:55.305Z,28.30
2018-09-05T12:38:23.873Z,28.70
2018-09-05T12:40:52.277Z,29.00
2018-09-05T12:43:20.821Z,28.50
2018-09-05T12:45:49.209Z,28.20
2018-09-05T12:48:17.585Z,27.40
2018-09-05T12:50:46.836Z,30.30
2018-09-05T12:53:15.200Z,29.40
2018-09-05T12:55:43.845Z,30.30
2018-09-05T12:58:12.290Z,31.30
2018-09-05T13:00:40.845Z,31.40
2018-09-05T13:03:09.293Z,29.70
2018-09-05T13:05:38.418Z,28.70
2018-09-05T13:08:06.869Z,29.90
2018-09-05T13:10:35.673Z,32.20
2018-09-05T13:13:04.508Z,33.60
2018-09-05T13:15:33.130Z,35.00
2018-09-05T13:18:02.484Z,34.10
2018-09-05T13:20:30.850Z,33.60
2018-09-05T13:22:59.453Z,30.20
2018-09-05T13:25:27.830Z,28.40
2018-09-05T13:27:57.128Z,27.00
2018-09-05T13:30:25.593Z,25.70
2018-09-05T13:32:54.072Z,25.70
2018-09-05T13:35:22.797Z,25.10
2018-09-05T13:37:51.652Z,24.30
2018-09-05T13:40:20.198Z,24.80
2018-09-05T13:42:49.555Z,23.90
2018-09-05T13:45:17.945Z,22.90
2018-09-05T13:47:46.335Z,23.20
2018-09-05T13:50:15.763Z,22.70
2018-09-05T13:52:44.135Z,23.70
2018-09-05T13:55:12.567Z,22.60
2018-09-05T13:57:40.946Z,22.90
2018-09-05T14:00:13.728Z,22.10
2018-09-05T14:02:42.292Z,22.40
2018-09-05T14:05:11.309Z,21.80
2018-09-05T14:07:39.816Z,21.70
2018-09-05T14:10:08.253Z,22.20
2018-09-05T14:12:36.759Z,22.20
2018-09-05T14:15:05.746Z,21.90
2018-09-05T14:17:35.753Z,21.70
2018-09-05T14:20:05.062Z,21.40
2018-09-05T14:22:33.827Z,22.10
2018-09-05T14:25:02.278Z,22.30
2018-09-05T14:27:30.710Z,21.70
2018-09-05T14:29:59.130Z,22.10
2018-09-05T14:32:27.674Z,21.30
2018-09-05T14:34:56.189Z,21.60
2018-09-05T14:37:24.613Z,21.40
2018-09-05T14:39:53.580Z,20.80
2018-09-05T14:42:21.882Z,21.20
2018-09-05T14:44:50.484Z,21.60
2018-09-05T14:47:19.142Z,21.60
2018-09-05T14:49:47.549Z,22.00
2018-09-05T14:52:15.997Z,21.80
2018-09-05T14:54:44.398Z,21.90
2018-09-05T14:57:12.941Z,21.20
2018-09-05T14:59:41.491Z,20.90
2018-09-05T15:02:09.905Z,20.50
2018-09-05T15:04:38.437Z,22.30
2018-09-05T15:07:08.141Z,24.00
2018-09-05T15:09:36.675Z,25.40
2018-09-05T15:12:05.142Z,25.40
2018-09-05T15:14:33.590Z,24.00
2018-09-05T15:17:02.008Z,24.10
2018-09-05T15:19:30.739Z,23.80
2018-09-05T15:21:59.135Z,24.00
2018-09-05T15:24:27.522Z,23.50
2018-09-05T15:26:56.127Z,23.90
2018-09-05T15:29:24.550Z,23.40
2018-09-05T15:31:53.038Z,23.60
2018-09-05T15:34:21.455Z,23.30
2018-09-05T15:36:50.012Z,23.60
2018-09-05T15:39:18.472Z,24.40
2018-09-05T15:41:47.003Z,24.70
2018-09-05T15:44:15.570Z,26.80
2018-09-05T15:46:44.002Z,28.90
2018-09-05T15:49:12.541Z,31.70
2018-09-05T15:51:41.109Z,34.80
2018-09-05T15:54:09.483Z,36.60
2018-09-05T15:56:37.751Z,38.50
2018-09-05T15:59:06.030Z,40.20
2018-09-05T16:01:34.321Z,42.20
2018-09-05T16:04:02.601Z,44.90
2018-09-05T16:06:30.882Z,47.30
2018-09-05T16:08:59.356Z,47.70
2018-09-05T16:11:27.533Z,48.70
2018-09-05T16:13:55.788Z,50.30
2018-09-05T16:16:24.184Z,51.10
2018-09-05T16:18:52.443Z,53.20
2018-09-05T16:21:20.809Z,54.40
2018-09-05T16:23:49.034Z,54.80
2018-09-05T16:26:17.392Z,55.10
2018-09-05T16:28:45.654Z,55.40
2018-09-05T16:31:13.902Z,56.80
2018-09-05T16:33:42.125Z,56.90
2018-09-05T16:36:10.878Z,57.00
2018-09-05T16:38:39.084Z,58.00
2018-09-05T16:41:07.359Z,58.90
2018-09-05T16:43:35.737Z,61.40
2018-09-05T16:46:04.008Z,63.00
2018-09-05T16:48:32.301Z,65.10
2018-09-05T16:51:00.502Z,68.30
2018-09-05T16:53:28.768Z,68.90
2018-09-05T16:55:57.061Z,69.90
2018-09-05T16:58:25.339Z,71.60
2018-09-05T17:00:53.798Z,72.30
2018-09-05T17:03:22.037Z,72.60
2018-09-05T17:05:50.257Z,73.40
2018-09-05T17:08:18.459Z,75.00
2018-09-05T17:10:46.685Z,76.90
2018-09-05T17:13:14.923Z,78.90
2018-09-05T17:15:43.377Z,79.60
2018-09-05T17:18:11.875Z,81.50
2018-09-05T17:20:40.176Z,83.00
2018-09-05T17:23:08.390Z,85.40
2018-09-05T17:25:36.639Z,87.10
2018-09-05T17:28:04.898Z,89.10
2018-09-05T17:30:33.166Z,90.00
2018-09-05T17:33:01.418Z,91.00
2018-09-05T17:35:29.674Z,91.70
2018-09-05T17:37:57.938Z,92.90
2018-09-05T17:40:26.348Z,93.40
2018-09-05T17:42:54.581Z,94.40
2018-09-05T17:45:22.822Z,95.70
2018-09-05T17:47:51.131Z,96.70
2018-09-05T17:50:19.542Z,97.00
2018-09-05T17:52:47.798Z,98.00
2018-09-05T17:55:16.113Z,98.70
2018-09-05T17:57:44.435Z,99.50
2018-09-05T18:00:12.937Z,99.90
2018-09-05T18:02:41.463Z,99.90
2018-09-05T18:05:09.694Z,99.90
2018-09-05T18:07:37.955Z,99.90
2018-09-05T18:10:06.258Z,99.90
2018-09-05T18:12:34.833Z,99.90
2018-09-05T18:15:03.349Z,99.90
2018-09-05T18:17:31.677Z,99.90
2018-09-05T18:19:59.928Z,99.90
2018-09-05T18:22:28.179Z,99.90
2018-09-05T18:24:56.649Z,99.90
2018-09-05T18:27:24.926Z,99.90
2018-09-05T18:29:53.176Z,99.90
2018-09-05T18:32:21.438Z,99.90
2018-09-05T18:34:49.704Z,99.90
2018-09-05T18:37:18.019Z,99.90
2018-09-05T18:39:46.323Z,99.90
2018-09-05T18:42:14.615Z,99.90
2018-09-05T18:44:42.862Z,99.90
2018-09-05T18:47:11.379Z,99.90
2018-09-05T18:49:39.763Z,99.90
2018-09-05T18:52:08.247Z,99.90
2018-09-05T18:54:36.714Z,99.90
2018-09-05T18:57:05.269Z,99.90
2018-09-05T18:59:33.804Z,99.90
2018-09-05T19:02:02.233Z,99.90
2018-09-05T19:04:30.668Z,99.90
2018-09-05T19:06:59.681Z,99.90
2018-09-05T19:09:28.078Z,99.90
2018-09-05T19:11:56.442Z,99.90
2018-09-05T19:14:24.869Z,99.90
2018-09-05T19:16:53.316Z,99.90
2018-09-05T19:19:21.771Z,99.90
2018-09-05T19:21:50.142Z,99.90
2018-09-05T19:24:18.565Z,99.90
2018-09-05T19:26:46.979Z,99.90
2018-09-05T19:29:15.464Z,99.90
2018-09-05T19:31:43.956Z,99.90
2018-09-05T19:34:12.367Z,99.90
2018-09-05T19:36:40.817Z,99.90
2018-09-05T19:39:10.000Z,99.90
2018-09-05T19:41:38.450Z,99.90
2018-09-05T19:44:06.977Z,99.90
2018-09-05T19:46:35.405Z,99.90
2018-09-05T19:49:03.727Z,99.90
2018-09-05T19:51:32.013Z,99.90
2018-09-05T19:54:00.429Z,99.90
2018-09-05T19:56:28.742Z,99.90
2018-09-05T19:58:57.157Z,99.90
2018-09-05T20:01:25.577Z,99.90
2018-09-05T20:03:54.113Z,99.90
2018-09-05T20:06:22.514Z,99.90
2018-09-05T20:08:50.939Z,99.90
2018-09-05T20:11:20.001Z,99.90
2018-09-05T20:13:48.234Z,99.90
2018-09-05T20:16:16.461Z,99.90
2018-09-05T20:18:44.775Z,99.90
2018-09-05T20:21:13.657Z,99.90
2018-09-05T20:23:41.930Z,99.90
2018-09-05T20:26:10.218Z,99.90
2018-09-05T20:28:38.510Z,99.90
2018-09-05T20:31:06.742Z,99.90
2018-09-05T20:33:35.215Z,99.90
2018-09-05T20:36:04.366Z,99.90
2018-09-05T20:38:32.607Z,99.90
2018-09-05T20:41:00.907Z,99.90
2018-09-05T20:43:29.175Z,99.90
2018-09-05T20:45:57.341Z,99.90
2018-09-05T20:48:25.574Z,99.90
2018-09-05T20:50:53.804Z,99.90
2018-09-05T20:53:22.024Z,99.90
2018-09-05T20:55:50.249Z,99.90
2018-09-05T20:58:18.547Z,99.90
2018-09-05T21:00:46.796Z,99.90
2018-09-05T21:03:15.016Z,99.90
2018-09-05T21:05:43.249Z,99.90
2018-09-05T21:08:11.509Z,99.90
2018-09-05T21:10:39.742Z,99.90
2018-09-05T21:13:08.013Z,99.90
2018-09-05T21:15:36.233Z,99.90
2018-09-05T21:18:04.503Z,99.90
2018-09-05T21:20:33.035Z,99.90
2018-09-05T21:23:01.273Z,99.90
2018-09-05T21:25:29.531Z,99.90
2018-09-05T21:27:57.757Z,99.90
2018-09-05T21:30:25.974Z,99.90
2018-09-05T21:32:54.181Z,99.90
2018-09-05T21:35:22.393Z,99.90
2018-09-05T21:37:50.614Z,99.90
2018-09-05T21:40:18.845Z,99.90
2018-09-05T21:42:47.185Z,99.90
2018-09-05T21:45:15.426Z,99.90
2018-09-05T21:47:43.651Z,99.90
2018-09-05T21:50:11.885Z,99.90
2018-09-05T21:52:40.138Z,99.90
2018-09-05T21:55:08.394Z,99.90
2018-09-05T21:57:36.616Z,99.90
2018-09-05T22:00:06.162Z,99.90
2018-09-05T22:02:34.374Z,99.90
2018-09-05T22:05:02.906Z,99.90
2018-09-05T22:07:31.157Z,99.90
2018-09-05T22:09:59.404Z,99.90
2018-09-05T22:12:27.637Z,99.90
2018-09-05T22:14:55.845Z,99.90
2018-09-05T22:17:24.117Z,99.90
2018-09-05T22:19:52.394Z,99.90
2018-09-05T22:22:20.626Z,99.90
2018-09-05T22:24:48.861Z,99.90
2018-09-05T22:27:17.409Z,99.90
2018-09-05T22:29:45.670Z,99.90
2018-09-05T22:32:13.954Z,99.90
2018-09-05T22:34:42.154Z,99.90
2018-09-05T22:37:10.521Z,99.90
2018-09-05T22:39:38.811Z,99.90
2018-09-05T22:42:07.047Z,99.90
2018-09-05T22:44:46.614Z,99.90
2018-09-05T22:47:26.189Z,99.90
2018-09-05T22:50:11.279Z,99.90
2018-09-05T22:57:05.154Z,99.90
2018-09-05T23:00:01.316Z,99.90
2018-09-05T23:04:39.555Z,99.90
2018-09-05T23:07:31.884Z,99.90
2018-09-05T23:10:11.507Z,99.90
2018-09-05T23:12:51.073Z,99.90
2018-09-05T23:15:30.618Z,99.90
2018-09-05T23:18:42.925Z,99.90
2018-09-05T23:21:19.014Z,99.90
2018-09-05T23:23:58.326Z,99.90
2018-09-05T23:26:26.826Z,99.90
2018-09-05T23:28:55.220Z,99.90
2018-09-05T23:31:23.803Z,99.90
2018-09-05T23:33:52.106Z,99.90
2018-09-05T23:36:20.733Z,99.90
2018-09-05T23:38:49.027Z,99.90
2018-09-05T23:41:17.279Z,99.90
2018-09-05T23:43:45.531Z,99.90
2018-09-05T23:46:14.050Z,99.90
2018-09-05T23:48:42.312Z,99.90
2018-09-05T23:51:10.744Z,99.90
2018-09-05T23:53:38.974Z,99.90
2018-09-05T23:56:07.239Z,99.90
2018-09-05T23:58:35.479Z,99.90
